Orchid, Florida
Current Conditions -  °F | °C
As of 11:07 AM on Wednesday 22 Oct 2014 (Local Time) from KVRB Reporting Station
Scattered Clouds Scattered Clouds  
Wind Chill: 76°   Ceiling: Unl
Heat Index: 76°   Visibility: 10mi
Dew Point: 71°   Wind: 3mph
Humidity: 85%   Direction: NA
Pressure: 29.99"   Gusts: NA
Location:  27.7066°N, 80.3826°W
Report Text: KVRB 221507Z VRB03KT 10SM SCT010 SCT016 24/22 A2999 RMK AO2 T02440217
Loading
Personal Weather Stations






























Interactive Weather Map
Tropical Storm Tracking
New forecast layout! Learn more

10-Day Weather Forecast

Advertisements
Track Severe Weather on mobile